INDIA METEOROLOGICAL DEPARTMENT, R.M.C. NEW DELHI
Dated:22-01-2019
METARS


Ahmedabad  
VAAH 212100Z 27006KT 4000 HZ FEW020 SCT080 20/13 Q1011 NOSIG=
Allahabad  
VEAB 212030Z 00000KT 2000 BR SCT100 17/15 Q1012 NOSIG=
Amritsar   
VIAR 212000Z 06004KT 2000 BR SCT030 FEW035CB BKN080 12/12 Q1013 NOSIG=
Bangalore  
VOBL 212100Z VRB03KT 3000 BR FEW010 15/15 Q1017 NOSIG=
Bhopal     
VABP 212100Z 20006KT 6000 FEW100 17/10 Q1013 NOSIG=
Bhubaneswar
VEBS 212030Z 00000KT 0150 R14/0350 FG VV/// 20/20 Q1015 NOSIG=
Chennai    
VOMM 212100Z 27002KT 2500 BR FEW020 22/20 Q1014 BECMG 1500 BR=
Coimbatore 
VOCB 212100Z 00000KT 4000 HZ NSC 18/13 Q1015 NOSIG=
Colombo    
VCBI 212040Z 04006KT 9000 NSC 23/21 Q1012 NOSIG=
Delhi      
VIDP 212030Z 11005KT 2100 -TSRA SCT030 FEW040CB BKN100 14/14 Q1013 TEMPO 1500 TSRA=
Gauhati    
VEGT 212100Z 00000KT 2000 BR FEW020 14/12 Q1016 BECMG 1500 BR=
Gaya       
VEGY 212030Z NIL=
Goa        
VOGO 212000Z VRB02KT 4500 BR FEW220 24/20 Q1012 NOSIG=
Hyderabad  
VOHS 212100Z NIL=
Jaipur     
VIJP 212100Z VRB02KT 2000 BR SCT030 FEW035CB OVC090 15/13 Q1012 NOSIG=
Kochi      
VOCI 212100Z 00000KT 3500 HZ NSC 20/17 Q1012 NOSIG=
Kolkata    
VECC 212100Z 00000KT 2000 BR NSC 14/12 Q1014 NOSIG=
Kozhikode  
VOCL 212100Z 07003KT 5000 BR FEW015 SCT090 22/19 Q1012 NOSIG=
Lucknow    
VILK 212100Z 09008KT 1500 R27/2000 RMID/2000 R09/2000 HZ SCT020 BKN100 18/11 Q1013 NOSIG=
Madurai    
VOMD 212100Z 00000KT 5000 HZ FEW020 SCT100 21/17 Q1014 NOSIG=
Mumbai     
VABB 212100Z 09003KT 2200 HZ NSC 23/20 Q1013 NOSIG=
Nagpur     
VANP 212100Z 00000KT 4000 HZ NSC 17/07 Q1013 NOSIG=
Patna      
VEPT 212100Z 00000KT 1200 R25/1700 BR NSC 12/10 Q1014 NOSIG=
Raipur     
VERP 212100Z 16003KT 6000 NSC 17/10 Q1014 NOSIG=
Surat     
VASU 211930Z 23004KT 5000 HZ NSC 21/20 Q1012=
Ranchi     
VERC 212100Z 00000KT 3000 HZ NSC 12/08 Q1017 NOSIG=
Trichy     
VOTR 212100Z 02003KT 3000 BR FEW016 20/18 Q1013 NOSIG=
Trivandrum 
VOTV 212100Z 12003KT 4000 HZ FEW015 24/21 Q1012 NOSIG=
Male       
VRMM 212100Z 07009KT 8000 FEW018 SCT270 27/21 Q1012 NOSIG=
Gan        
VRMG 212100Z 05004KT 9999 FEW018TCU BKN260 27/24 Q1010 NOSIG=
Kathmandu  
VNKT 212050Z 07003KT 4000 BR FEW015 SCT250 07/06 Q1021 NOSIG=
Dhaka      
VGHS 212100Z 00000KT 2500 HZ NSC 18/13 Q1015 TEMPO S/VIS 2000M=
Colombo    
VCBI 212040Z 04006KT 9000 NSC 23/21 Q1012 NOSIG=
Karachi    
OPKC 212055Z 00000KT 2500 BR NSC 15/13 Q1013 NOSIG=
Lahore     
OPLA 212055Z 08005KT 4000 FU SCT040 BKN100 11/10 Q1013 TEMPO 32015G30KT 1500 TSRA FEW030CB RMK QFE987 RMK A29.90=
Leh        
VILH 212030Z VRB02KT 6000 FEW070 BKN120 -5/-1 Q1012 NOSIG=
Sri Nagar  
VISR 212030Z VRB01KT 0800 -RASN+FG BKN007 SCT015 OVC080 00/00 Q1013 NOSIG=
Jammu      
VIJU 212030Z 07007KT 6000 SCT018 SCT025 BKN090 11/07 Q1013 NOSIG=
Jodhpur    
VIJO 212030Z 18005KT 6000 SCT020 FEW030CB BKN090 13/11 Q1013 TEMPO RA=
Jaisalmer  
VIJR 212030Z VRB02KT 4000 BR SKC 12/12 Q1012 BECMG 3000=
Bhuj-Rudra 
VABJ 211930Z VRB01KT 6000 SKC 17/10 Q1013 NOSIG=
Gorakhpur  
VEGK 212030Z VRB02KT 0600 FG SCT250 12/12 Q1015=
Agra       
VIAG 212030Z 09010G20KT 2500 BRTSRA SCT025 FEW030CB BKN080 17/13 Q1010 TEMPO 1500M=
Gwalior    
VIGR 212030Z 09006KT 2000 BR SCT020 SCT030 BKN090 15/14 Q1013 TEMPO RA=
Pune       
VAPO 212030Z 29003KT 6000 NSC 16/10 Q1016 NOSIG=
Chandigarh 
VICG 212030Z 16007KT 3000 BR SCT025 FEW030TCU BKN090 15/11 Q1012 TEMPO TSRA=
Jamnagar   
VAJM 212030Z VRB01KT 4000 BR SKC 15/13 Q1012 NOSIG=